Time;durP1;ratioP1;P1;durP2;ratioP2;P2;SDS_P1;SDS_P2;PMS_P1;PMS_P2;Temp;Humidity;BMP_temperature;BMP_pressure;BME280_temperature;BME280_humidity;BME280_pressure;Samples;Min_cycle;Max_cycle;Signal;HPM_P1;HPM_P2
2024/04/11 00:01:48;;;;;;;8.77;5.70;;;;;;;12.95;74.73;101199.03;5524701;25;19993;-54
2024/04/11 00:04:24;;;;;;;11.18;5.70;;;;;;;13.00;74.57;101196.06;5525183;25;20005;-52
2024/04/11 00:06:54;;;;;;;9.85;5.50;;;;;;;13.09;74.22;101198.25;5525713;25;20068;-54
2024/04/11 00:09:24;;;;;;;10.70;5.22;;;;;;;13.38;72.77;101196.63;5525749;25;19998;-56
2024/04/11 00:11:54;;;;;;;10.02;5.80;;;;;;;13.06;73.77;101201.09;5525573;25;19998;-54
2024/04/11 00:14:22;;;;;;;11.85;5.65;;;;;;;13.07;73.67;101198.34;5525554;25;20388;-54
2024/04/11 00:16:52;;;;;;;10.45;6.05;;;;;;;12.95;74.47;101199.03;5525426;25;20477;-53
2024/04/11 00:19:20;;;;;;;10.00;6.22;;;;;;;12.92;74.61;101204.53;5525747;25;20049;-52
2024/04/11 00:21:50;;;;;;;10.07;5.40;;;;;;;12.86;74.94;101207.56;5525677;25;20001;-52
2024/04/11 00:24:18;;;;;;;10.55;5.53;;;;;;;13.08;74.20;101216.13;5525470;25;19997;-52
2024/04/11 00:26:51;;;;;;;9.77;5.55;;;;;;;13.00;74.14;101209.47;5525500;25;20008;-55
2024/04/11 00:29:18;;;;;;;11.13;5.53;;;;;;;13.03;74.44;101217.34;5525593;25;20065;-54
2024/04/11 00:31:48;;;;;;;9.73;6.05;;;;;;;12.88;74.79;101219.03;5525482;25;20013;-52
2024/04/11 00:34:23;;;;;;;9.60;5.70;;;;;;;12.92;74.79;101223.25;5525162;25;20007;-56
2024/04/11 00:36:55;;;;;;;10.40;5.72;;;;;;;12.93;74.49;101227.66;5525559;25;20034;-57
2024/04/11 00:39:24;;;;;;;9.27;5.65;;;;;;;12.94;74.76;101224.06;5525208;25;20005;-55
2024/04/11 00:41:57;;;;;;;9.75;5.60;;;;;;;13.04;74.05;101224.44;5525290;25;20001;-56
2024/04/11 00:44:25;;;;;;;11.88;6.00;;;;;;;13.03;74.11;101223.56;5525310;25;20004;-56
2024/04/11 00:46:58;;;;;;;11.80;6.10;;;;;;;12.82;74.84;101227.38;5525359;25;19997;-56
2024/04/11 00:49:27;;;;;;;12.88;5.97;;;;;;;12.97;74.37;101218.53;5525008;25;20009;-53
2024/04/11 00:51:57;;;;;;;9.40;5.50;;;;;;;12.90;74.87;101223.34;5524942;25;20012;-52
2024/04/11 00:54:26;;;;;;;14.00;6.22;;;;;;;12.85;75.05;101232.59;5524514;25;20069;-53
2024/04/11 00:57:00;;;;;;;11.55;5.97;;;;;;;12.92;74.61;101225.09;5524016;25;19993;-55
2024/04/11 00:59:28;;;;;;;11.43;6.22;;;;;;;12.80;75.10;101237.31;5525176;25;19997;-55
2024/04/11 01:01:58;;;;;;;11.63;5.82;;;;;;;12.92;74.83;101236.66;5524845;25;19994;-54
2024/04/11 01:04:26;;;;;;;11.18;6.45;;;;;;;12.78;75.20;101233.88;5524767;25;19997;-53
2024/04/11 01:07:09;;;;;;;13.00;6.13;;;;;;;12.77;75.15;101242.84;5524647;25;19997;-58
2024/04/11 01:09:39;;;;;;;11.23;6.07;;;;;;;12.92;74.80;101233.97;5524937;25;20028;-52
2024/04/11 01:12:16;;;;;;;10.00;5.93;;;;;;;12.68;76.10;101232.63;5524502;25;20016;-53
2024/04/11 01:14:47;;;;;;;10.68;6.13;;;;;;;12.77;75.40;101233.00;5524313;25;20418;-53
2024/04/11 01:17:20;;;;;;;11.30;6.15;;;;;;;12.68;75.52;101238.84;5524494;25;20350;-54
2024/04/11 01:19:48;;;;;;;;;;;;;;;12.75;75.60;101234.03;5525471;25;19997;-54
2024/04/11 01:22:19;;;;;;;9.45;5.80;;;;;;;12.67;75.46;101241.63;5524616;25;19923;-52
2024/04/11 01:24:52;;;;;;;11.85;6.53;;;;;;;12.68;75.63;101240.66;5523900;25;20335;-54
2024/04/11 01:27:24;;;;;;;11.43;6.70;;;;;;;12.74;75.36;101243.91;5524188;25;20004;-54
2024/04/11 01:29:52;;;;;;;9.98;5.78;;;;;;;12.84;75.17;101244.25;5524075;25;19993;-58
2024/04/11 01:32:22;;;;;;;10.65;6.25;;;;;;;12.77;75.31;101237.50;5524226;25;19999;-55
2024/04/11 01:34:56;;;;;;;9.80;5.80;;;;;;;12.66;76.19;101245.25;5524342;25;20005;-54
2024/04/11 01:37:26;;;;;;;10.25;6.22;;;;;;;12.68;75.87;101249.56;5524593;25;20012;-50
2024/04/11 01:39:57;;;;;;;11.82;6.20;;;;;;;12.78;76.03;101249.94;5529365;25;19997;-55
2024/04/11 01:42:27;;;;;;;10.85;6.43;;;;;;;12.78;75.65;101249.94;5531194;25;20004;-54
2024/04/11 01:44:55;;;;;;;10.25;6.07;;;;;;;12.93;74.87;101257.13;5528750;25;19997;-55
2024/04/11 01:47:26;;;;;;;11.00;6.03;;;;;;;12.81;75.34;101257.78;5524785;25;20018;-58
2024/04/11 01:49:54;;;;;;;9.35;5.68;;;;;;;12.64;76.33;101257.81;5524406;25;19997;-55
2024/04/11 01:52:25;;;;;;;12.18;5.75;;;;;;;12.80;75.33;101256.06;5524981;25;19994;-56
2024/04/11 01:54:57;;;;;;;12.23;6.57;;;;;;;12.75;75.76;101255.47;5524737;25;20073;-56
2024/04/11 01:57:30;;;;;;;10.77;6.23;;;;;;;12.78;75.31;101255.28;5524187;25;19993;-55
2024/04/11 01:59:58;;;;;;;11.77;6.17;;;;;;;12.84;75.30;101260.31;5523894;25;20242;-52
2024/04/11 02:02:29;;;;;;;12.15;6.30;;;;;;;12.92;74.58;101263.44;5523969;25;19993;-55
2024/04/11 02:04:57;;;;;;;9.82;6.00;;;;;;;12.97;74.74;101269.41;5523469;25;20005;-55
2024/04/11 02:07:27;;;;;;;9.48;5.75;;;;;;;13.11;74.01;101274.00;5523291;25;20012;-56
2024/04/11 02:09:56;;;;;;;10.73;6.15;;;;;;;13.13;73.47;101273.00;5523360;25;20610;-56
2024/04/11 02:12:26;;;;;;;11.90;6.47;;;;;;;13.08;73.71;101266.16;5523378;25;19997;-53
2024/04/11 02:14:58;;;;;;;10.23;6.18;;;;;;;12.97;74.07;101268.56;5523744;25;20069;-56
2024/04/11 02:17:30;;;;;;;12.27;6.30;;;;;;;12.73;75.27;101263.56;5523251;25;19997;-55
2024/04/11 02:19:59;;;;;;;13.80;5.93;;;;;;;12.87;74.78;101270.88;5523762;25;20415;-53
2024/04/11 02:22:29;;;;;;;13.38;5.97;;;;;;;12.88;74.48;101270.78;5523830;25;20075;-56
2024/04/11 02:24:58;;;;;;;11.30;6.22;;;;;;;12.87;74.50;101285.13;5522793;25;20004;-56
2024/04/11 02:27:29;;;;;;;12.57;6.50;;;;;;;13.01;74.26;101268.28;5523593;25;20009;-54
2024/04/11 02:29:59;;;;;;;10.25;5.70;;;;;;;13.11;73.68;101280.25;5523240;25;20005;-53
2024/04/11 02:32:30;;;;;;;10.68;5.93;;;;;;;12.95;74.21;101274.00;5523458;25;19997;-55
2024/04/11 02:35:05;;;;;;;10.25;5.82;;;;;;;12.88;74.69;101272.59;5523236;25;20460;-56
2024/04/11 02:37:36;;;;;;;11.95;5.95;;;;;;;12.95;74.14;101267.78;5523297;25;20008;-53
2024/04/11 02:40:07;;;;;;;11.27;5.97;;;;;;;12.94;74.28;101276.75;5523540;25;19993;-55
2024/04/11 02:42:39;;;;;;;8.90;5.85;;;;;;;12.84;74.64;101279.06;5523444;25;20002;-54
2024/04/11 02:45:14;;;;;;;9.90;6.32;;;;;;;12.75;74.71;101288.44;5523059;25;19997;-56
2024/04/11 02:47:44;;;;;;;10.50;5.90;;;;;;;13.09;73.42;101287.50;5523257;25;19997;-55
2024/04/11 02:50:15;;;;;;;9.20;5.75;;;;;;;12.73;74.93;101290.31;5522952;25;20482;-55
2024/04/11 02:52:45;;;;;;;10.63;5.80;;;;;;;12.77;74.43;101286.56;5522995;25;20752;-51
2024/04/11 02:55:14;;;;;;;12.18;6.38;;;;;;;12.86;74.42;101296.78;5522803;25;20468;-53
2024/04/11 02:57:45;;;;;;;11.43;6.28;;;;;;;12.70;75.23;101300.34;5523450;25;19998;-56
2024/04/11 03:00:16;;;;;;;12.18;6.38;;;;;;;12.85;74.78;101289.69;5523161;25;20366;-52
2024/04/11 03:02:47;;;;;;;10.77;6.10;;;;;;;12.59;75.30;101299.09;5523004;25;20001;-51
2024/04/11 03:05:16;;;;;;;16.27;6.45;;;;;;;12.63;75.53;101304.28;5522639;25;20066;-53
2024/04/11 03:07:49;;;;;;;11.55;6.53;;;;;;;12.46;76.45;101303.34;5522935;25;19994;-55
2024/04/11 03:10:17;;;;;;;8.80;5.95;;;;;;;12.56;76.28;101304.59;5522765;25;20066;-54
2024/04/11 03:12:47;;;;;;;11.63;5.93;;;;;;;12.45;76.53;101315.00;5522456;25;20448;-51
2024/04/11 03:15:18;;;;;;;10.57;6.65;;;;;;;12.73;75.58;101326.94;5522244;25;20072;-52
2024/04/11 03:17:50;;;;;;;9.48;5.88;;;;;;;12.67;75.78;101317.44;5522367;25;19997;-53
2024/04/11 03:20:18;;;;;;;10.27;6.25;;;;;;;12.59;75.79;101322.31;5522514;25;20322;-55
2024/04/11 03:22:48;;;;;;;10.75;6.03;;;;;;;12.70;75.49;101319.06;5522465;25;19994;-53
2024/04/11 03:25:16;;;;;;;9.95;6.18;;;;;;;12.43;76.71;101324.03;5522366;25;20008;-54
2024/04/11 03:27:46;;;;;;;10.45;6.03;;;;;;;12.47;77.01;101320.28;5521813;25;19997;-56
2024/04/11 03:30:17;;;;;;;10.77;5.88;;;;;;;12.49;76.59;101324.59;5521612;25;19993;-55
2024/04/11 03:32:46;;;;;;;10.18;6.00;;;;;;;12.55;77.00;101321.63;5521478;25;19997;-56
2024/04/11 03:35:15;;;;;;;9.70;6.30;;;;;;;12.60;76.13;101316.00;5521644;25;20302;-54
2024/04/11 03:37:49;;;;;;;10.38;6.72;;;;;;;12.55;77.03;101318.94;5523018;25;20009;-54
2024/04/11 03:40:16;;;;;;;10.90;6.40;;;;;;;12.49;76.97;101324.59;5525337;25;20512;-54
2024/04/11 03:42:47;;;;;;;12.82;6.57;;;;;;;12.42;77.20;101330.31;5525317;25;19994;-57
2024/04/11 03:45:26;;;;;;;11.68;6.57;;;;;;;12.33;78.13;101329.84;5525422;25;20004;-54
2024/04/11 03:47:57;;;;;;;11.52;6.18;;;;;;;12.74;76.40;101334.00;5525660;25;20008;-55
2024/04/11 03:50:28;;;;;;;13.52;6.43;;;;;;;12.55;76.65;101329.66;5525450;25;19994;-55
2024/04/11 03:52:58;;;;;;;10.00;6.35;;;;;;;12.45;77.61;101333.72;5525316;25;20354;-53
2024/04/11 03:55:27;;;;;;;13.77;6.85;;;;;;;12.55;76.73;101337.66;5525312;25;20008;-53
2024/04/11 03:57:57;;;;;;;12.60;6.90;;;;;;;12.42;77.33;101336.53;5525550;25;20020;-54
2024/04/11 04:00:28;;;;;;;12.35;5.85;;;;;;;12.29;78.28;101338.97;5525590;25;20001;-51
2024/04/11 04:02:59;;;;;;;10.75;6.28;;;;;;;12.51;77.44;101356.63;5525697;25;20008;-55
2024/04/11 04:05:27;;;;;;;11.52;6.50;;;;;;;12.43;77.66;101362.34;5525525;25;19997;-52
2024/04/11 04:07:57;;;;;;;11.90;6.78;;;;;;;12.41;77.79;101369.59;5525457;25;20345;-52
2024/04/11 04:10:25;;;;;;;9.93;6.10;;;;;;;12.41;78.16;101369.59;5525280;25;20383;-54
2024/04/11 04:12:57;;;;;;;13.07;6.40;;;;;;;12.51;77.64;101373.53;5525342;25;20029;-53
2024/04/11 04:15:25;;;;;;;13.90;6.68;;;;;;;12.51;77.82;101376.22;5525481;25;20454;-53
2024/04/11 04:17:58;;;;;;;8.98;6.47;;;;;;;12.48;77.51;101381.75;5525254;25;20003;-54
2024/04/11 04:20:26;;;;;;;12.38;6.78;;;;;;;12.52;77.04;101383.31;5525343;25;20005;-54
2024/04/11 04:22:57;;;;;;;12.93;6.95;;;;;;;12.45;77.58;101381.91;5525214;25;20418;-55
2024/04/11 04:25:27;;;;;;;15.45;6.32;;;;;;;12.45;77.76;101386.34;5525308;25;19990;-53
2024/04/11 04:27:57;;;;;;;11.70;6.10;;;;;;;12.46;77.78;101388.97;5525461;25;20001;-53
2024/04/11 04:30:24;;;;;;;13.35;6.72;;;;;;;12.71;76.63;101387.72;5525412;25;20017;-52
2024/04/11 04:32:58;;;;;;;13.48;7.03;;;;;;;12.67;76.55;101389.69;5531231;25;20046;-57
2024/04/11 04:35:28;;;;;;;13.32;6.90;;;;;;;12.59;76.69;101394.56;5534393;25;20061;-55
2024/04/11 04:37:58;;;;;;;13.43;7.00;;;;;;;12.71;76.35;101398.44;5531323;25;20009;-56
2024/04/11 04:40:26;;;;;;;17.00;7.70;;;;;;;12.66;76.71;101389.78;5527095;25;20009;-53
2024/04/11 04:42:58;;;;;;;15.00;8.15;;;;;;;12.93;75.69;101408.91;5524876;25;20434;-56
2024/04/11 04:45:26;;;;;;;12.20;6.88;;;;;;;12.65;76.39;101401.44;5524983;25;20077;-56
2024/04/11 04:48:02;;;;;;;12.13;7.22;;;;;;;12.56;76.61;101400.97;5524220;25;20154;-57
2024/04/11 04:50:30;;;;;;;11.65;6.55;;;;;;;12.65;76.34;101407.66;5525134;25;20326;-56
2024/04/11 04:53:01;;;;;;;11.98;6.97;;;;;;;12.43;77.56;101405.16;5524685;25;20474;-53
2024/04/11 04:55:35;;;;;;;13.27;6.82;;;;;;;12.64;76.99;101407.72;5524240;25;20069;-54
2024/04/11 04:58:06;;;;;;;12.50;7.15;;;;;;;12.80;76.33;101414.03;5524788;25;20065;-54
2024/04/11 05:00:34;;;;;;;15.35;8.35;;;;;;;12.82;75.25;101412.13;5524460;25;20038;-57
2024/04/11 05:03:10;;;;;;;14.32;8.23;;;;;;;13.03;74.91;101407.50;5493457;25;20017;-56
2024/04/11 05:05:38;;;;;;;13.48;8.10;;;;;;;13.25;73.66;101409.94;5517373;26;20020;-54
2024/04/11 05:08:13;;;;;;;17.80;7.25;;;;;;;12.98;74.72;101409.53;5524465;25;20012;-54
2024/04/11 05:10:41;;;;;;;12.50;7.22;;;;;;;13.20;73.75;101418.22;5524333;25;20064;-54
2024/04/11 05:13:12;;;;;;;18.25;6.68;;;;;;;13.39;72.71;101418.09;5524634;25;20395;-56
2024/04/11 05:15:39;;;;;;;14.90;7.30;;;;;;;13.75;71.45;101416.13;5524322;25;20018;-56
2024/04/11 05:18:12;;;;;;;10.45;6.60;;;;;;;13.85;71.02;101411.13;5524364;25;20025;-57
2024/04/11 05:20:42;;;;;;;13.23;7.13;;;;;;;14.02;69.75;101415.56;5524468;25;19993;-56
2024/04/11 05:23:14;;;;;;;10.88;6.80;;;;;;;13.88;70.62;101418.13;5522711;25;20029;-51
2024/04/11 05:25:43;;;;;;;12.82;7.32;;;;;;;14.18;69.30;101429.81;5490620;26;20002;-54
2024/04/11 05:28:16;;;;;;;9.90;6.43;;;;;;;14.29;68.97;101424.72;5487269;26;20009;-54
2024/04/11 05:30:45;;;;;;;13.23;6.95;;;;;;;14.21;68.68;101435.03;5487435;26;20010;-50
2024/04/11 05:33:18;;;;;;;16.08;7.20;;;;;;;13.79;70.43;101426.66;5486870;26;20066;-51
2024/04/11 05:35:45;;;;;;;11.95;6.50;;;;;;;13.81;70.82;101431.03;5486839;26;19998;-55
2024/04/11 05:38:16;;;;;;;14.23;7.38;;;;;;;14.15;69.97;101435.34;5486844;26;19998;-52
2024/04/11 05:40:43;;;;;;;12.88;7.10;;;;;;;13.85;70.79;101434.38;5487022;26;19990;-54
2024/04/11 05:43:15;;;;;;;15.20;7.25;;;;;;;14.05;70.10;101444.88;5486975;26;20024;-54
2024/04/11 05:45:57;;;;;;;15.10;6.90;;;;;;;14.27;69.58;101445.38;5487090;26;20449;-52
2024/04/11 05:48:31;;;;;;;11.93;6.65;;;;;;;14.52;68.71;101438.66;5487270;26;19998;-52
2024/04/11 05:51:00;;;;;;;14.48;6.95;;;;;;;14.50;68.45;101451.31;5486892;26;20006;-53
2024/04/11 05:53:30;;;;;;;10.88;6.68;;;;;;;14.60;68.27;101455.19;5487558;26;20078;-52
2024/04/11 05:55:57;;;;;;;12.48;6.78;;;;;;;14.44;68.59;101448.94;5486870;26;19998;-54
2024/04/11 05:58:28;;;;;;;15.48;7.28;;;;;;;14.49;68.59;101458.50;5486634;26;20436;-53
2024/04/11 06:01:01;;;;;;;11.20;6.65;;;;;;;14.18;69.38;101455.78;5485492;26;20005;-55
2024/04/11 06:03:34;;;;;;;13.35;7.07;;;;;;;14.45;68.88;101450.72;5486824;26;20010;-56
2024/04/11 06:06:03;;;;;;;12.73;6.82;;;;;;;14.76;67.97;101453.34;5486881;26;20004;-54
2024/04/11 06:08:34;;;;;;;10.05;6.43;;;;;;;14.80;67.53;101457.59;5486436;26;20005;-55
2024/04/11 06:11:02;;;;;;;11.93;6.53;;;;;;;14.84;67.70;101456.44;5486479;26;20033;-51
2024/04/11 06:13:32;;;;;;;12.38;6.50;;;;;;;15.34;67.03;101463.28;5486905;26;20016;-55
2024/04/11 06:16:00;;;;;;;10.98;7.00;;;;;;;15.43;66.02;101465.41;5493050;26;20082;-52
2024/04/11 06:18:38;;;;;;;11.65;6.70;;;;;;;15.05;67.03;101467.72;5496379;25;19995;-52
2024/04/11 06:21:11;;;;;;;11.57;6.47;;;;;;;15.65;65.56;101464.16;5486183;26;20026;-54
2024/04/11 06:23:41;;;;;;;12.35;6.55;;;;;;;16.01;64.77;101467.19;5492956;26;20012;-52
2024/04/11 06:26:12;;;;;;;13.27;6.78;;;;;;;16.25;63.21;101469.28;5523599;25;20100;-55
2024/04/11 06:28:47;;;;;;;17.58;6.43;;;;;;;16.29;63.05;101476.19;5523344;25;19997;-54
2024/04/11 06:31:17;;;;;;;10.55;6.38;;;;;;;16.56;62.08;101469.00;5523164;25;19994;-51
2024/04/11 06:33:50;;;;;;;13.52;6.32;;;;;;;16.57;62.11;101475.25;5523135;25;20490;-52
2024/04/11 06:36:18;;;;;;;14.10;6.57;;;;;;;16.72;61.24;101481.50;5522640;25;19997;-50
2024/04/11 06:38:49;;;;;;;13.82;6.55;;;;;;;16.78;61.23;101473.00;5523139;25;19998;-58
2024/04/11 06:41:18;;;;;;;14.10;6.13;;;;;;;17.06;60.40;101478.25;5523661;25;20004;-55
2024/04/11 06:43:50;;;;;;;11.57;6.20;;;;;;;17.14;60.83;101481.31;5523071;25;19998;-56
2024/04/11 06:46:18;;;;;;;10.77;6.70;;;;;;;16.80;62.09;101481.88;5522936;25;19998;-51
2024/04/11 06:48:57;;;;;;;13.40;6.80;;;;;;;17.16;61.02;101481.19;5522577;25;20009;-54
2024/04/11 06:51:25;;;;;;;11.10;6.43;;;;;;;17.61;60.78;101481.69;5523064;25;19997;-53
2024/04/11 06:53:57;;;;;;;12.75;7.85;;;;;;;16.83;61.95;101487.03;5522730;25;20065;-52
2024/04/11 06:56:25;;;;;;;13.30;8.13;;;;;;;17.19;61.89;101482.84;5522918;25;20004;-54
2024/04/11 06:58:55;;;;;;;16.30;8.25;;;;;;;17.41;61.84;101488.47;5522637;25;20009;-53
2024/04/11 07:01:23;;;;;;;13.77;7.93;;;;;;;17.17;62.62;101486.47;5522758;25;20008;-53
2024/04/11 07:04:00;;;;;;;13.93;8.10;;;;;;;17.33;62.46;101485.44;5522621;25;19994;-54
2024/04/11 07:06:29;;;;;;;13.05;8.07;;;;;;;17.28;63.13;101488.47;5522646;25;20004;-53
2024/04/11 07:09:03;;;;;;;10.95;7.68;;;;;;;17.26;63.14;101494.91;5521901;25;20016;-54
2024/04/11 07:11:32;;;;;;;16.95;7.85;;;;;;;17.41;62.10;101483.94;5523302;25;20043;-54
2024/04/11 07:14:10;;;;;;;12.88;7.85;;;;;;;17.26;63.73;101489.50;5526264;25;19997;-54
2024/04/11 07:16:40;;;;;;;14.15;7.32;;;;;;;17.42;63.27;101487.50;5525952;25;20009;-53
2024/04/11 07:19:17;;;;;;;12.57;7.57;;;;;;;17.78;62.10;101485.94;5525578;25;20043;-51
2024/04/11 07:21:46;;;;;;;11.20;7.53;;;;;;;17.46;63.37;101481.78;5525869;26;20009;-50
2024/04/11 07:24:17;;;;;;;13.13;6.38;;;;;;;17.95;62.25;101488.25;5525627;25;19998;-50
2024/04/11 07:26:48;;;;;;;14.40;6.97;;;;;;;17.87;62.10;101496.06;5527234;25;19997;-55
2024/04/11 07:29:21;;;;;;;12.30;7.72;;;;;;;17.63;62.25;101499.47;5529733;25;19997;-54
2024/04/11 07:31:49;;;;;;;;;;;;;;;17.86;62.49;101500.63;5530551;25;20319;-54
2024/04/11 07:34:23;;;;;;;15.63;7.38;;;;;;;17.86;62.35;101505.16;5530309;25;19923;-56
2024/04/11 07:36:51;;;;;;;10.60;6.90;;;;;;;18.30;60.82;101505.50;5528914;25;20008;-56
2024/04/11 07:39:22;;;;;;;12.57;7.68;;;;;;;18.04;61.11;101509.22;5525592;25;20005;-55
2024/04/11 07:42:00;;;;;;;10.32;7.03;;;;;;;18.40;60.24;101503.00;5525658;25;20088;-54
2024/04/11 07:44:31;;;;;;;12.55;6.95;;;;;;;18.45;60.83;101508.06;5525737;25;19997;-51
2024/04/11 07:47:05;;;;;;;14.23;7.57;;;;;;;17.86;61.98;101516.81;5525802;25;20008;-52
2024/04/11 07:49:50;;;;;;;13.80;7.18;;;;;;;18.10;62.12;101516.88;5525663;25;19997;-53
2024/04/11 07:52:18;;;;;;;14.80;8.45;;;;;;;17.93;63.25;101523.47;5526045;25;20009;-56
2024/04/11 07:54:53;;;;;;;11.23;7.25;;;;;;;18.19;62.12;101513.53;5525676;25;20451;-57
2024/04/11 07:57:21;;;;;;;10.63;7.85;;;;;;;18.29;62.32;101509.19;5525524;25;20008;-54
2024/04/11 07:59:55;;;;;;;6.90;4.85;;;;;;;18.92;60.98;101518.09;5525077;25;20702;-52
2024/04/11 08:02:23;;;;;;;10.10;5.85;;;;;;;19.32;59.11;101518.63;5525542;25;20052;-57
2024/04/11 08:04:56;;;;;;;11.55;6.55;;;;;;;19.41;58.40;101515.22;5525574;25;20005;-55
2024/04/11 08:07:23;;;;;;;12.77;7.07;;;;;;;19.38;57.95;101519.97;5514406;25;20012;-53
2024/04/11 08:09:55;;;;;;;11.90;7.07;;;;;;;18.95;59.17;101517.00;5524995;25;20360;-55
2024/04/11 08:12:24;;;;;;;14.03;7.67;;;;;;;18.98;59.66;101514.03;5525408;25;19997;-55
2024/04/11 08:14:54;;;;;;;12.35;7.07;;;;;;;18.98;58.83;101519.44;5525149;25;20270;-55
2024/04/11 08:17:22;;;;;;;13.02;7.35;;;;;;;19.08;59.12;101521.34;5524468;25;19993;-54
2024/04/11 08:19:55;;;;;;;13.93;7.10;;;;;;;19.41;58.80;101528.72;5524770;25;20042;-55
2024/04/11 08:22:27;;;;;;;12.25;6.15;;;;;;;19.27;57.91;101522.66;5524426;25;20452;-55
2024/04/11 08:24:58;;;;;;;10.68;6.32;;;;;;;19.44;58.14;101524.91;5502444;25;20002;-53
2024/04/11 08:27:25;;;;;;;11.40;6.22;;;;;;;19.18;57.32;101526.91;5487398;26;20420;-53
2024/04/11 08:29:55;;;;;;;11.20;6.30;;;;;;;19.03;57.87;101531.66;5487379;26;19994;-52
2024/04/11 08:32:23;;;;;;;11.70;6.72;;;;;;;19.40;57.78;101528.84;5487033;26;19994;-55
2024/04/11 08:34:56;;;;;;;10.07;5.85;;;;;;;19.57;57.16;101541.94;5487920;26;19998;-52
2024/04/11 08:37:23;;;;;;;10.20;6.30;;;;;;;19.20;57.57;101535.75;5487760;26;20479;-55
2024/04/11 08:39:54;;;;;;;10.40;6.38;;;;;;;19.17;58.12;101539.56;5497454;26;20003;-56
2024/04/11 08:42:22;;;;;;;11.35;6.55;;;;;;;19.08;58.15;101539.41;5491578;25;19998;-53
2024/04/11 08:44:57;;;;;;;14.00;6.80;;;;;;;19.40;57.44;101539.69;5487501;26;20095;-56
2024/04/11 08:47:25;;;;;;;11.82;6.65;;;;;;;19.41;57.11;101547.69;5487699;26;19998;-55
2024/04/11 08:49:59;;;;;;;10.13;6.28;;;;;;;19.31;57.64;101535.84;5492438;26;20484;-56
2024/04/11 08:52:30;;;;;;;11.25;6.38;;;;;;;19.65;57.19;101544.06;5507884;26;20006;-55
2024/04/11 08:55:00;;;;;;;11.00;6.10;;;;;;;19.14;57.94;101539.81;5510339;25;20001;-55
2024/04/11 08:57:28;;;;;;;11.80;6.05;;;;;;;19.28;58.48;101546.88;5503723;25;20001;-54
2024/04/11 08:59:58;;;;;;;10.63;6.20;;;;;;;18.94;58.51;101539.59;5500880;26;20002;-57
2024/04/11 09:02:28;;;;;;;11.38;6.07;;;;;;;19.27;57.81;101553.25;5495700;26;20002;-52
2024/04/11 09:04:58;;;;;;;12.43;6.25;;;;;;;19.31;58.09;101546.66;5499771;26;20057;-55
2024/04/11 09:07:40;;;;;;;13.45;6.35;;;;;;;19.65;56.57;101549.47;5486653;26;20377;-55
2024/04/11 09:10:09;;;;;;;10.38;6.20;;;;;;;19.43;56.53;101552.97;5487070;26;20004;-51
2024/04/11 09:12:42;;;;;;;9.98;6.53;;;;;;;19.27;56.72;101549.69;5487337;26;20005;-55
2024/04/11 09:15:10;;;;;;;10.05;5.68;;;;;;;19.17;56.88;101549.53;5487521;26;20022;-55
2024/04/11 09:17:43;;;;;;;8.88;5.72;;;;;;;19.59;56.57;101555.34;5502660;26;20029;-53
2024/04/11 09:20:15;;;;;;;13.85;6.82;;;;;;;19.54;56.34;101553.00;5487234;26;20002;-52
2024/04/11 09:22:52;;;;;;;12.05;6.15;;;;;;;19.52;55.58;101565.78;5486832;26;20010;-55
2024/04/11 09:25:26;;;;;;;10.63;5.30;;;;;;;19.76;55.43;101551.34;5487128;26;20006;-57
2024/04/11 09:27:58;;;;;;;8.73;5.60;;;;;;;19.65;54.65;101547.63;5487190;26;19998;-55
2024/04/11 09:30:34;;;;;;;11.20;5.25;;;;;;;19.57;54.69;101546.50;5488206;26;20006;-53
2024/04/11 09:33:09;;;;;;;11.82;6.13;;;;;;;19.72;54.43;101542.63;5486958;26;20486;-54
2024/04/11 09:35:46;;;;;;;9.75;6.15;;;;;;;19.78;54.66;101538.53;5486766;26;20013;-54
2024/04/11 09:38:21;;;;;;;9.95;5.70;;;;;;;19.35;56.33;101545.44;5487021;26;19998;-56
2024/04/11 09:40:50;;;;;;;9.40;6.13;;;;;;;19.13;56.33;101542.63;5486574;26;20018;-55
2024/04/11 09:43:27;;;;;;;11.43;6.57;;;;;;;19.54;55.62;101541.31;5487272;26;19994;-52
2024/04/11 09:45:59;;;;;;;9.50;5.88;;;;;;;19.64;55.81;101545.91;5487060;26;20009;-54
2024/04/11 09:48:31;;;;;;;9.57;5.90;;;;;;;19.73;55.18;101536.22;5487134;26;20029;-55
2024/04/11 09:51:10;;;;;;;8.55;6.22;;;;;;;19.93;54.39;101537.34;5488966;26;19994;-53
2024/04/11 09:53:41;;;;;;;11.68;6.60;;;;;;;19.93;55.14;101532.78;5487674;26;20639;-53
2024/04/11 09:56:13;;;;;;;10.52;6.65;;;;;;;20.35;54.01;101534.88;5486195;26;20008;-54
2024/04/11 09:58:45;;;;;;;11.30;6.20;;;;;;;20.12;54.57;101536.75;5486699;26;20327;-55
2024/04/11 10:01:29;;;;;;;13.65;6.20;;;;;;;20.11;53.86;101532.31;5486783;26;19994;-52
2024/04/11 10:04:04;;;;;;;13.60;6.28;;;;;;;20.35;53.44;101524.91;5486624;26;20070;-54
2024/04/11 10:06:41;;;;;;;11.82;6.60;;;;;;;20.82;52.26;101526.47;5491869;26;20002;-56
2024/04/11 10:09:17;;;;;;;11.52;5.88;;;;;;;21.27;51.00;101517.34;5486783;26;20009;-56
2024/04/11 10:11:47;;;;;;;10.10;6.25;;;;;;;20.79;51.48;101523.16;5486591;26;19998;-54
2024/04/11 10:14:20;;;;;;;8.27;5.40;;;;;;;20.47;52.82;101531.25;5486484;26;20022;-55
2024/04/11 10:16:53;;;;;;;12.20;6.05;;;;;;;20.63;52.40;101526.25;5486450;26;19994;-53
2024/04/11 10:19:31;;;;;;;7.57;5.55;;;;;;;21.20;51.82;101524.22;5486069;26;19998;-57
2024/04/11 10:22:04;;;;;;;10.30;5.43;;;;;;;20.82;51.89;101523.75;5486846;26;19998;-54
2024/04/11 10:24:44;;;;;;;10.98;5.50;;;;;;;21.14;51.21;101520.22;5486282;26;20482;-53
2024/04/11 10:27:17;;;;;;;7.72;5.20;;;;;;;21.06;50.96;101518.13;5487628;26;20026;-55
2024/04/11 10:29:50;;;;;;;10.05;5.22;;;;;;;20.94;51.66;101511.03;5523823;25;20008;-51
2024/04/11 10:32:22;;;;;;;8.60;5.47;;;;;;;21.02;50.92;101518.50;5522331;26;20009;-55
2024/04/11 10:34:58;;;;;;;9.25;5.20;;;;;;;21.30;50.49;101520.63;5527102;25;20005;-55
2024/04/11 10:37:33;;;;;;;10.68;5.60;;;;;;;21.50;50.33;101516.22;5527180;25;19998;-56
2024/04/11 10:40:09;;;;;;;9.18;5.30;;;;;;;21.41;50.48;101512.44;5527327;25;20008;-53
2024/04/11 10:42:39;;;;;;;8.10;5.38;;;;;;;21.92;50.06;101510.75;5526383;25;19993;-54
2024/04/11 10:45:17;;;;;;;8.25;5.70;;;;;;;21.46;50.37;101508.47;5523079;25;20388;-56
2024/04/11 10:47:47;;;;;;;10.15;5.22;;;;;;;21.76;50.08;101505.81;5521851;25;20005;-55
2024/04/11 10:50:23;;;;;;;11.90;5.10;;;;;;;22.16;49.29;101497.75;5522354;25;20069;-53
2024/04/11 10:52:57;;;;;;;11.38;5.60;;;;;;;22.02;49.42;101500.81;5522226;25;20093;-56
2024/04/11 10:55:28;;;;;;;11.63;5.80;;;;;;;21.83;49.48;101507.00;5522544;25;20006;-54
2024/04/11 10:58:09;;;;;;;10.20;4.90;;;;;;;22.07;49.48;101497.69;5522238;25;20001;-55
2024/04/11 11:03:40;;;;;;;10.27;5.32;;;;;;;22.46;50.47;101498.69;5521417;26;20008;-56
2024/04/11 11:06:13;;;;;;;8.98;5.50;;;;;;;22.24;49.57;101494.34;5522200;25;20338;-58
2024/04/11 11:08:46;;;;;;;8.88;5.00;;;;;;;22.53;49.25;101497.13;5521948;25;19997;-56
2024/04/11 11:11:15;;;;;;;8.95;5.55;;;;;;;22.55;48.96;101486.97;5522129;25;20070;-55
2024/04/11 11:13:52;;;;;;;10.77;5.13;;;;;;;22.37;49.46;101484.06;5521904;25;20366;-57
2024/04/11 11:16:21;;;;;;;13.80;5.80;;;;;;;22.26;49.72;101481.47;5522294;25;20001;-55
2024/04/11 11:18:53;;;;;;;12.07;5.53;;;;;;;22.27;49.94;101481.31;5521631;25;20314;-55
2024/04/11 11:21:22;;;;;;;12.38;5.75;;;;;;;22.39;49.61;101482.09;5522436;25;20004;-57
2024/04/11 11:23:59;;;;;;;12.07;5.50;;;;;;;22.69;49.30;101478.44;5522080;25;20066;-53
2024/04/11 11:26:35;;;;;;;9.77;4.93;;;;;;;22.62;49.19;101482.72;5521987;25;20396;-57
2024/04/11 11:29:07;;;;;;;10.30;5.35;;;;;;;22.51;49.27;101470.09;5521938;25;20001;-55
2024/04/11 11:31:36;;;;;;;11.25;5.50;;;;;;;22.53;49.54;101475.38;5522158;25;20065;-56
2024/04/11 11:34:09;;;;;;;9.43;5.60;;;;;;;22.42;49.40;101479.09;5521887;25;20153;-56
2024/04/11 11:36:38;;;;;;;11.63;5.45;;;;;;;22.74;49.42;101481.56;5521392;25;19994;-58
2024/04/11 11:39:17;;;;;;;10.57;5.55;;;;;;;22.64;49.05;101475.25;5522093;25;20414;-54
2024/04/11 11:41:47;;;;;;;10.07;5.45;;;;;;;22.49;49.33;101473.97;5521956;25;20042;-55